Grantham, United Kingdom
Current Conditions -  °F | °C
As of 5:50 AM on Thursday 29 Jan 2015 (Local Time) from EGYD Reporting Station
Few Clouds Few Clouds  
Wind Chill: 22°   Ceiling: Unl
Heat Index: 34°   Visibility: 6mi
Dew Point: 30°   Wind: 23mph
Humidity: 87%   Direction: 240°WSW
Pressure: 29.12"   Gusts: NA
Location:  52.92°N, 0.64°W
Report Text: EGYD 290550Z AUTO 24020KT 9999 // FEW014/// 01/M01 Q0986
Loading
Personal Weather Stations






























Interactive Weather Map New forecast layout! Learn more

10-Day Weather Forecast

Advertisements
Track Severe Weather on mobile